Hughes, AK

7:50 PM AKDT on September 27, 2016 (GMT -0800)
Indian Mountain | | Change Station

Elev 1276 ft 65.99 °N, 153.70 °W | Updated 55 minutes ago

Scattered Clouds
Scattered Clouds
34 °F
Feels Like 34 °F
N
0
Wind Variable Wind from North

Today
High -- | Low -- °F
--% Chance of Precip.
Yesterday
High -- | Low -- °F
Precip. -- in
Pressure 30.21 in
Visibility 10.0 miles
Clouds Few 2400 ft
Few 11000 ft
Scattered Clouds 14000 ft
Dew Point 28 °F
Humidity 80%
Rainfall 0.00 in
Snow Depth Not available.
8:15 AM 7:54 PM
Waning Crescent, 8% visible
METAR PAIM 280255Z AUTO 00000KT 10SM FEW024 FEW110 SCT140 01/M02 A3015 RMK AO2 SLP230 T00111020 52003
Pressure 30.21 in
Visibility 10.0 miles
Clouds Few 2400 ft
Few 11000 ft
Scattered Clouds 14000 ft
Dew Point 28 °F
Humidity 80%
Rainfall 0.00 in
Snow Depth Not available.
8:15 AM 7:54 PM
Waning Crescent, 8% visible
METAR PAIM 280255Z AUTO 00000KT 10SM FEW024 FEW110 SCT140 01/M02 A3015 RMK AO2 SLP230 T00111020 52003

10-Day Weather Forecast

Almanac

Astronomy

Sep. 27, 2016 Rise Set
Actual Time
Civil Twilight
Nautical Twilight
Astronomical Twilight
Moon
Length of Visible Light
Length of Day
Tomorrow will be .
, % of the Moon is Illuminated

Today's Extremes

State Highs State Lows

Community

WunderPhotos

Upload Photos

1,942,203 photos uploaded!

WunderBlog® & News

Nearby

Air Quality

  Air Quality AQ Index Pollutant
Not available.

Snow Depth

Station Depth Elevation

Earthquake Activity

City Distance Mag. Time & Date
Minimum magnitude displayed is 2.5.

Coastal Water Temperatures

Place Temperature

Stations

Nearby Weather Stations

Station Location Temp. Windchill Dew Point Humidity Wind Precip. Elev Updated Type
                   

Watches & Warnings

There are currently no watches in effect.